createdAt,value
2018-06-29T00:01:01.798Z,96641.44
2018-06-29T00:03:29.191Z,96641.73
2018-06-29T00:05:56.549Z,96641.94
2018-06-29T00:08:24.072Z,96642.96
2018-06-29T00:10:51.166Z,96642.38
2018-06-29T00:13:18.549Z,96643.06
2018-06-29T00:15:45.921Z,96642.22
2018-06-29T00:18:13.235Z,96644.63
2018-06-29T00:20:40.565Z,96641.09
2018-06-29T00:23:07.903Z,96645.56
2018-06-29T00:25:35.314Z,96642.92
2018-06-29T00:28:02.629Z,96637.82
2018-06-29T00:30:30.004Z,96646.91
2018-06-29T00:32:57.415Z,96649.89
2018-06-29T00:35:24.731Z,96649.89
2018-06-29T00:37:52.105Z,96644.46
2018-06-29T00:40:19.486Z,96649.09
2018-06-29T00:42:46.847Z,96644.23
2018-06-29T00:45:14.274Z,96638.88
2018-06-29T00:47:41.654Z,96645.08
2018-06-29T00:50:09.088Z,96645.71
2018-06-29T00:52:36.484Z,96648.10
2018-06-29T00:55:03.847Z,96651.17
2018-06-29T00:57:31.286Z,96646.28
2018-06-29T00:59:58.678Z,96643.94
2018-06-29T01:02:26.076Z,96640.55
2018-06-29T01:04:53.495Z,96650.53
2018-06-29T01:07:21.952Z,96648.70
2018-06-29T01:09:53.125Z,96646.58
2018-06-29T01:12:25.531Z,96649.22
2018-06-29T01:14:53.050Z,96646.50
2018-06-29T01:17:20.423Z,96649.73
2018-06-29T01:19:47.800Z,96651.52
2018-06-29T01:22:15.189Z,96648.12
2018-06-29T01:24:42.661Z,96652.48
2018-06-29T01:27:09.983Z,96651.85
2018-06-29T01:29:44.256Z,96653.47
2018-06-29T01:32:11.631Z,96654.09
2018-06-29T01:34:38.944Z,96642.86
2018-06-29T01:37:23.839Z,96647.36
2018-06-29T01:39:51.225Z,96645.57
2018-06-29T01:42:18.671Z,96644.86
2018-06-29T01:44:45.993Z,96646.38
2018-06-29T01:47:21.749Z,96641.66
2018-06-29T01:49:50.190Z,96643.52
2018-06-29T01:52:17.587Z,96643.36
2018-06-29T01:54:45.046Z,96642.94
2018-06-29T01:57:12.433Z,96643.83
2018-06-29T01:59:39.904Z,96646.46
2018-06-29T02:02:07.291Z,96645.26
2018-06-29T02:04:34.641Z,96647.89
2018-06-29T02:07:02.051Z,96646.71
2018-06-29T02:09:29.574Z,96636.89
2018-06-29T02:11:57.044Z,96635.70
2018-06-29T02:14:24.497Z,96626.88
2018-06-29T02:16:51.843Z,96628.38
2018-06-29T02:19:19.239Z,96626.50
2018-06-29T02:21:46.616Z,96631.48
2018-06-29T02:24:14.111Z,96634.48
2018-06-29T02:26:41.496Z,96626.43
2018-06-29T02:29:08.925Z,96618.60
2018-06-29T02:31:36.289Z,96625.19
2018-06-29T02:34:03.979Z,96621.52
2018-06-29T02:36:31.441Z,96610.54
2018-06-29T02:38:58.846Z,96613.72
2018-06-29T02:41:26.248Z,96611.42
2018-06-29T02:43:53.752Z,96614.80
2018-06-29T02:46:21.152Z,96610.63
2018-06-29T02:48:48.501Z,96615.53
2018-06-29T02:51:15.821Z,96614.72
2018-06-29T02:53:43.287Z,96618.89
2018-06-29T02:56:10.646Z,96616.47
2018-06-29T02:58:37.995Z,96618.98
2018-06-29T03:01:05.419Z,96500.22
2018-06-29T03:03:32.735Z,96616.44
2018-06-29T03:06:00.134Z,96612.06
2018-06-29T03:08:27.549Z,96612.79
2018-06-29T03:10:54.870Z,96613.05
2018-06-29T03:13:22.202Z,96607.16
2018-06-29T03:15:49.530Z,96605.02
2018-06-29T03:18:16.859Z,96609.13
2018-06-29T03:20:44.203Z,96589.08
2018-06-29T03:23:11.590Z,96598.27
2018-06-29T03:25:38.902Z,96605.91
2018-06-29T03:28:06.298Z,96610.42
2018-06-29T03:30:33.658Z,96609.67
2018-06-29T03:33:01.086Z,96607.52
2018-06-29T03:35:28.451Z,96609.94
2018-06-29T03:37:55.875Z,96612.45
2018-06-29T03:40:23.557Z,96612.23
2018-06-29T03:42:50.940Z,96609.85
2018-06-29T03:45:18.366Z,96611.19
2018-06-29T03:47:45.751Z,96612.38
2018-06-29T03:50:13.047Z,96613.61
2018-06-29T03:53:03.834Z,96614.29
2018-06-29T03:55:31.157Z,96614.06
2018-06-29T03:57:58.617Z,96613.59
2018-06-29T04:00:26.553Z,96334.77
2018-06-29T04:02:53.885Z,96612.19
2018-06-29T04:05:21.217Z,96612.05
2018-06-29T04:07:48.522Z,96606.29
2018-06-29T04:10:15.894Z,96604.06
2018-06-29T04:12:43.221Z,96596.47
2018-06-29T04:15:10.666Z,96598.54
2018-06-29T04:17:38.007Z,96605.34
2018-06-29T04:20:05.619Z,96597.22
2018-06-29T04:22:33.316Z,96597.36
2018-06-29T04:25:04.097Z,96586.71
2018-06-29T04:27:32.016Z,96589.11
2018-06-29T04:29:59.418Z,96588.73
2018-06-29T04:32:26.781Z,96585.05
2018-06-29T04:34:54.154Z,96582.82
2018-06-29T04:37:21.559Z,96582.72
2018-06-29T04:39:48.918Z,96587.00
2018-06-29T04:42:16.223Z,96588.38
2018-06-29T04:44:43.631Z,96590.16
2018-06-29T04:47:10.917Z,96586.35
2018-06-29T04:49:38.269Z,96586.06
2018-06-29T04:52:06.038Z,96590.04
2018-06-29T04:54:33.420Z,96586.40
2018-06-29T04:57:00.804Z,96590.23
2018-06-29T04:59:28.134Z,96594.42
2018-06-29T05:01:55.621Z,96595.70
2018-06-29T05:04:24.439Z,96599.39
2018-06-29T05:06:51.821Z,96599.73
2018-06-29T05:09:19.257Z,96592.02
2018-06-29T05:11:46.635Z,96580.59
2018-06-29T05:14:14.002Z,96586.50
2018-06-29T05:16:41.440Z,96584.98
2018-06-29T05:19:08.826Z,96588.70
2018-06-29T05:21:36.216Z,96573.92
2018-06-29T05:24:04.645Z,96599.23
2018-06-29T05:26:32.130Z,96598.68
2018-06-29T05:28:59.459Z,96601.13
2018-06-29T05:31:26.827Z,96520.22
2018-06-29T05:33:54.207Z,96600.31
2018-06-29T05:36:21.533Z,96598.40
2018-06-29T05:38:48.981Z,96601.91
2018-06-29T05:41:16.313Z,96604.43
2018-06-29T05:43:43.868Z,96603.30
2018-06-29T05:46:11.113Z,96596.58
2018-06-29T05:48:38.384Z,96594.52
2018-06-29T05:51:05.843Z,96595.11
2018-06-29T05:53:33.162Z,96588.89
2018-06-29T05:56:00.483Z,96598.41
2018-06-29T05:58:27.866Z,96592.06
2018-06-29T06:00:55.252Z,96596.84
2018-06-29T06:03:23.111Z,96597.39
2018-06-29T06:05:50.455Z,96596.38
2018-06-29T06:08:17.727Z,96594.96
2018-06-29T06:10:45.101Z,96595.72
2018-06-29T06:13:12.399Z,96598.50
2018-06-29T06:15:39.691Z,96599.88
2018-06-29T06:18:06.988Z,96604.03
2018-06-29T06:20:34.309Z,96600.11
2018-06-29T06:23:16.154Z,96603.75
2018-06-29T06:25:43.519Z,96606.78
2018-06-29T06:28:10.896Z,96613.06
2018-06-29T06:30:38.288Z,96616.83
2018-06-29T06:33:06.181Z,96615.31
2018-06-29T06:35:34.137Z,96604.77
2018-06-29T06:38:02.140Z,96608.48
2018-06-29T06:40:31.289Z,96611.05
2018-06-29T06:42:59.107Z,96611.05
2018-06-29T06:45:26.898Z,96610.27
2018-06-29T06:47:54.204Z,96606.26
2018-06-29T06:50:21.562Z,96610.84
2018-06-29T06:52:48.925Z,96613.38
2018-06-29T06:55:16.586Z,96613.50
2018-06-29T06:57:43.927Z,96616.61
2018-06-29T07:00:11.435Z,96619.77
2018-06-29T07:02:38.758Z,96626.29
2018-06-29T07:05:06.362Z,96621.45
2018-06-29T07:07:33.634Z,96623.47
2018-06-29T07:10:01.071Z,96483.95
2018-06-29T07:12:28.493Z,96614.78
2018-06-29T07:15:02.809Z,96611.94
2018-06-29T07:17:30.193Z,96612.02
2018-06-29T07:19:57.599Z,96603.08
2018-06-29T07:22:26.208Z,96603.58
2018-06-29T07:24:53.703Z,96601.11
2018-06-29T07:27:21.084Z,96590.48
2018-06-29T07:29:48.442Z,96595.72
2018-06-29T07:32:15.804Z,96590.89
2018-06-29T07:34:43.316Z,96593.77
2018-06-29T07:37:10.681Z,96592.83
2018-06-29T07:39:38.090Z,96593.55
2018-06-29T07:42:05.455Z,96592.98
2018-06-29T07:44:32.852Z,96590.85
2018-06-29T07:47:00.267Z,96589.97
2018-06-29T07:49:27.740Z,96587.14
2018-06-29T07:51:55.118Z,96596.15
2018-06-29T07:54:23.122Z,96599.83
2018-06-29T07:56:50.525Z,96596.44
2018-06-29T07:59:17.899Z,96601.23
2018-06-29T08:01:45.321Z,96591.77
2018-06-29T08:04:12.760Z,96591.80
2018-06-29T08:06:40.176Z,96591.81
2018-06-29T08:09:09.362Z,96599.69
2018-06-29T08:11:36.654Z,96601.42
2018-06-29T08:14:04.016Z,96600.41
2018-06-29T08:16:31.378Z,96602.00
2018-06-29T08:18:58.736Z,96601.14
2018-06-29T08:21:26.747Z,96599.48
2018-06-29T08:23:54.136Z,96597.91
2018-06-29T08:26:24.033Z,96598.03
2018-06-29T08:28:51.373Z,96601.99
2018-06-29T08:31:18.704Z,96594.67
2018-06-29T08:33:46.047Z,96594.77
2018-06-29T08:36:13.449Z,96596.48
2018-06-29T08:38:40.756Z,96597.67
2018-06-29T08:41:08.190Z,96597.81
2018-06-29T08:43:35.624Z,96589.06
2018-06-29T08:46:02.946Z,96586.23
2018-06-29T08:48:30.351Z,96595.50
2018-06-29T08:50:58.093Z,96600.09
2018-06-29T08:53:25.436Z,96595.28
2018-06-29T08:55:52.896Z,96593.99
2018-06-29T08:58:20.937Z,96585.69
2018-06-29T09:00:48.713Z,96585.98
2018-06-29T09:03:16.034Z,96590.44
2018-06-29T09:05:43.560Z,96593.03
2018-06-29T09:08:11.067Z,96597.42
2018-06-29T09:10:38.728Z,96589.47
2018-06-29T09:13:06.075Z,96584.84
2018-06-29T09:15:33.542Z,96591.70
2018-06-29T09:18:00.838Z,96589.81
2018-06-29T09:20:30.491Z,96541.86
2018-06-29T09:22:57.850Z,96601.12
2018-06-29T09:25:25.187Z,96599.61
2018-06-29T09:27:52.545Z,96595.47
2018-06-29T09:30:19.893Z,96594.63
2018-06-29T09:32:47.338Z,96594.94
2018-06-29T09:35:14.665Z,96595.49
2018-06-29T09:37:41.988Z,96598.45
2018-06-29T09:40:09.318Z,96594.94
2018-06-29T09:42:36.735Z,96591.23
2018-06-29T09:45:04.458Z,96588.48
2018-06-29T09:47:31.736Z,96584.94
2018-06-29T09:49:59.240Z,96583.71
2018-06-29T09:52:26.719Z,96574.65
2018-06-29T09:54:54.099Z,96575.77
2018-06-29T09:57:21.506Z,96566.16
2018-06-29T09:59:48.807Z,96576.72
2018-06-29T10:02:16.205Z,96577.02
2018-06-29T10:04:43.582Z,96570.06
2018-06-29T10:07:11.113Z,96564.73
2018-06-29T10:09:38.671Z,96562.11
2018-06-29T10:12:06.169Z,96558.14
2018-06-29T10:14:33.487Z,96554.91
2018-06-29T10:17:00.834Z,96551.71
2018-06-29T10:19:28.164Z,96538.30
2018-06-29T10:21:56.279Z,96543.59
2018-06-29T10:24:23.829Z,96543.05
2018-06-29T10:26:51.287Z,96547.30
2018-06-29T10:29:18.681Z,96539.63
2018-06-29T10:31:46.086Z,96443.45
2018-06-29T10:34:13.456Z,96538.48
2018-06-29T10:36:40.985Z,96532.58
2018-06-29T10:39:10.867Z,96541.83
2018-06-29T10:41:38.258Z,96537.61
2018-06-29T10:44:05.811Z,96546.01
2018-06-29T10:46:33.147Z,96544.94
2018-06-29T10:49:00.538Z,96545.64
2018-06-29T10:51:27.919Z,96540.06
2018-06-29T10:53:55.371Z,96541.59
2018-06-29T10:56:23.298Z,96536.25
2018-06-29T10:58:50.670Z,96546.16
2018-06-29T11:01:18.082Z,96541.37
2018-06-29T11:03:45.743Z,96538.63
2018-06-29T11:06:13.170Z,96534.92
2018-06-29T11:08:40.617Z,96536.82
2018-06-29T11:11:08.066Z,96532.64
2018-06-29T11:13:35.512Z,96534.28
2018-06-29T11:16:02.830Z,96536.26
2018-06-29T11:18:30.473Z,96529.25
2018-06-29T11:20:57.986Z,96527.51
2018-06-29T11:23:25.464Z,96520.69
2018-06-29T11:25:52.913Z,96517.84
2018-06-29T11:28:20.221Z,96514.13
2018-06-29T11:30:47.616Z,96516.16
2018-06-29T11:33:14.981Z,96510.27
2018-06-29T11:35:42.331Z,96513.56
2018-06-29T11:38:09.694Z,96508.63
2018-06-29T11:40:37.086Z,96505.86
2018-06-29T11:43:04.754Z,96509.12
2018-06-29T11:45:32.110Z,96496.34
2018-06-29T11:47:59.522Z,96504.45
2018-06-29T11:50:26.927Z,96505.30
2018-06-29T11:52:54.352Z,96502.78
2018-06-29T11:55:21.857Z,96505.18
2018-06-29T11:57:49.328Z,96486.58
2018-06-29T12:00:16.725Z,96503.05
2018-06-29T12:02:44.098Z,96498.41
2018-06-29T12:05:11.446Z,96499.86
2018-06-29T12:07:38.862Z,96493.78
2018-06-29T12:10:06.863Z,96495.04
2018-06-29T12:12:34.336Z,96490.28
2018-06-29T12:20:11.391Z,96490.22
2018-06-29T12:22:38.958Z,96479.34
2018-06-29T12:25:06.428Z,96487.68
2018-06-29T12:27:33.892Z,96491.84
2018-06-29T12:30:01.291Z,96484.09
2018-06-29T12:32:28.613Z,96492.45
2018-06-29T12:34:56.368Z,96483.41
2018-06-29T12:37:23.780Z,96489.17
2018-06-29T12:39:51.116Z,96500.26
2018-06-29T12:42:18.503Z,96494.85
2018-06-29T12:44:45.902Z,96480.20
2018-06-29T12:47:13.398Z,96481.05
2018-06-29T12:49:40.829Z,96493.85
2018-06-29T12:52:12.339Z,96485.50
2018-06-29T12:54:39.704Z,96487.80
2018-06-29T12:57:07.015Z,96474.98
2018-06-29T12:59:34.418Z,96479.80
2018-06-29T13:02:01.793Z,96475.08
2018-06-29T13:04:29.182Z,96468.95
2018-06-29T13:06:56.607Z,96475.71
2018-06-29T13:09:23.987Z,96471.18
2018-06-29T13:11:53.936Z,96480.27
2018-06-29T13:14:21.508Z,96475.84
2018-06-29T13:16:48.911Z,96466.75
2018-06-29T13:19:16.269Z,96466.24
2018-06-29T13:21:46.198Z,96469.59
2018-06-29T13:24:14.722Z,96461.52
2018-06-29T13:26:45.892Z,96459.83
2018-06-29T13:29:13.362Z,96462.74
2018-06-29T13:31:40.685Z,96461.52
2018-06-29T13:34:08.033Z,96460.25
2018-06-29T13:36:35.406Z,96453.59
2018-06-29T13:39:02.956Z,96451.06
2018-06-29T13:41:30.291Z,96445.06
2018-06-29T13:43:57.867Z,96451.73
2018-06-29T13:46:25.778Z,96449.45
2018-06-29T13:48:53.562Z,96442.47
2018-06-29T13:51:20.971Z,96434.41
2018-06-29T13:53:48.414Z,96434.96
2018-06-29T13:56:15.948Z,96433.80
2018-06-29T13:58:43.329Z,96434.03
2018-06-29T14:01:10.677Z,96435.91
2018-06-29T14:03:37.994Z,96429.54
2018-06-29T14:06:05.332Z,96436.19
2018-06-29T14:08:35.172Z,96432.39
2018-06-29T14:11:03.950Z,96432.78
2018-06-29T14:13:31.506Z,96426.11
2018-06-29T14:15:59.037Z,96419.14
2018-06-29T14:18:26.446Z,96417.29
2018-06-29T14:20:53.916Z,96418.13
2018-06-29T14:23:21.362Z,96421.04
2018-06-29T14:25:48.703Z,96419.70
2018-06-29T14:28:16.486Z,96414.86
2018-06-29T14:30:44.239Z,96416.25
2018-06-29T14:33:21.686Z,96418.84
2018-06-29T14:35:49.270Z,96412.74
2018-06-29T14:38:18.282Z,96409.64
2018-06-29T14:40:45.823Z,96410.03
2018-06-29T14:43:13.221Z,96414.89
2018-06-29T14:45:41.153Z,96409.38
2018-06-29T14:48:08.871Z,96404.17
2018-06-29T14:50:40.571Z,96403.16
2018-06-29T14:55:47.025Z,96406.81
2018-06-29T14:58:14.726Z,96401.75
2018-06-29T15:00:42.420Z,96394.36
2018-06-29T15:03:09.764Z,96392.15
2018-06-29T15:05:38.290Z,96389.52
2018-06-29T15:08:05.811Z,96382.95
2018-06-29T15:10:33.742Z,96384.84
2018-06-29T15:13:03.650Z,96389.91
2018-06-29T15:15:31.487Z,96383.91
2018-06-29T15:17:59.220Z,96376.72
2018-06-29T15:20:27.618Z,96384.61
2018-06-29T15:22:55.025Z,96385.80
2018-06-29T15:25:22.729Z,96385.19
2018-06-29T15:27:50.407Z,96381.05
2018-06-29T15:30:18.568Z,96375.58
2018-06-29T15:32:45.885Z,96376.83
2018-06-29T15:35:13.201Z,96380.06
2018-06-29T15:37:41.143Z,96375.44
2018-06-29T15:40:08.497Z,96377.43
2018-06-29T15:42:35.986Z,96376.56
2018-06-29T15:45:03.766Z,96369.77
2018-06-29T15:47:31.100Z,96370.63
2018-06-29T15:49:58.432Z,96370.11
2018-06-29T15:52:25.769Z,96365.87
2018-06-29T15:54:53.139Z,96364.53
2018-06-29T15:57:22.233Z,96360.63
2018-06-29T15:59:49.607Z,96353.58
2018-06-29T16:02:17.037Z,96354.34
2018-06-29T16:04:44.354Z,96351.63
2018-06-29T16:07:11.796Z,96350.91
2018-06-29T16:09:39.176Z,96353.05
2018-06-29T16:12:06.602Z,96357.27
2018-06-29T16:14:34.029Z,96353.25
2018-06-29T16:17:01.418Z,96355.37
2018-06-29T16:19:34.325Z,96354.63
2018-06-29T16:22:01.777Z,96344.38
2018-06-29T16:24:29.172Z,96346.83
2018-06-29T16:26:56.563Z,96346.83
2018-06-29T16:29:24.083Z,96349.52
2018-06-29T16:31:51.449Z,96347.99
2018-06-29T16:34:18.828Z,96347.00
2018-06-29T16:36:49.189Z,96346.02
2018-06-29T16:39:16.514Z,96345.56
2018-06-29T16:41:43.861Z,96353.02
2018-06-29T16:44:11.734Z,96356.09
2018-06-29T16:46:39.058Z,96346.95
2018-06-29T16:49:06.439Z,96350.83
2018-06-29T16:51:34.158Z,96348.41
2018-06-29T16:54:01.439Z,96353.05
2018-06-29T16:56:28.883Z,96348.52
2018-06-29T16:58:56.257Z,96351.09
2018-06-29T17:01:23.587Z,96350.79
2018-06-29T17:03:56.891Z,96342.73
2018-06-29T17:06:24.215Z,96348.75
2018-06-29T17:08:51.651Z,96350.70
2018-06-29T17:11:19.198Z,96337.17
2018-06-29T17:13:46.718Z,96336.22
2018-06-29T17:16:14.108Z,96337.82
2018-06-29T17:18:41.581Z,96340.69
2018-06-29T17:21:09.102Z,96338.94
2018-06-29T17:23:36.531Z,96337.53
2018-06-29T17:26:03.864Z,96337.23
2018-06-29T17:28:31.222Z,96340.38
2018-06-29T17:30:58.662Z,96335.73
2018-06-29T17:33:32.053Z,96329.77
2018-06-29T17:35:53.433Z,96329.58
2018-06-29T17:38:20.850Z,96333.06
2018-06-29T17:40:48.204Z,96334.79
2018-06-29T17:43:15.525Z,96331.31
2018-06-29T17:45:42.969Z,96332.91
2018-06-29T17:48:10.366Z,96340.78
2018-06-29T17:50:37.833Z,96338.60
2018-06-29T17:53:05.355Z,96341.82
2018-06-29T17:55:32.721Z,96336.66
2018-06-29T17:58:00.126Z,96338.94
2018-06-29T18:00:27.569Z,96337.73
2018-06-29T18:02:54.970Z,96341.14
2018-06-29T18:05:22.406Z,96344.27
2018-06-29T18:07:49.839Z,96346.24
2018-06-29T18:10:17.149Z,96341.09
2018-06-29T18:12:44.587Z,96345.73
2018-06-29T18:15:11.864Z,96340.90
2018-06-29T18:17:39.207Z,96342.22
2018-06-29T18:20:06.588Z,96341.49
2018-06-29T18:22:33.923Z,96343.03
2018-06-29T18:25:01.265Z,96341.28
2018-06-29T18:27:28.615Z,96344.69
2018-06-29T18:29:55.985Z,96341.38
2018-06-29T18:32:23.335Z,96211.92
2018-06-29T18:34:50.703Z,96340.64
2018-06-29T18:37:18.136Z,96339.93
2018-06-29T18:39:45.493Z,96337.39
2018-06-29T18:42:12.752Z,96342.73
2018-06-29T18:44:40.074Z,96337.80
2018-06-29T18:47:07.389Z,96341.39
2018-06-29T18:49:34.780Z,96339.22
2018-06-29T18:52:02.088Z,96340.93
2018-06-29T18:54:29.374Z,96343.06
2018-06-29T18:56:56.647Z,96339.42
2018-06-29T18:59:23.955Z,96349.98
2018-06-29T19:01:51.248Z,96344.97
2018-06-29T19:04:18.653Z,96351.91
2018-06-29T19:06:45.970Z,96356.77
2018-06-29T19:09:13.303Z,96357.05
2018-06-29T19:11:40.544Z,96355.27
2018-06-29T19:14:08.042Z,96356.63
2018-06-29T19:16:36.571Z,96358.61
2018-06-29T19:19:09.211Z,96359.81
2018-06-29T19:21:36.485Z,96361.88
2018-06-29T19:24:03.940Z,96360.73
2018-06-29T19:26:31.320Z,96355.55
2018-06-29T19:28:58.696Z,96359.37
2018-06-29T19:31:26.163Z,96362.11
2018-06-29T19:33:53.367Z,96363.19
2018-06-29T19:36:20.726Z,96365.95
2018-06-29T19:38:48.144Z,96371.95
2018-06-29T19:41:15.441Z,96375.33
2018-06-29T19:43:42.890Z,96371.19
2018-06-29T19:46:10.288Z,96371.50
2018-06-29T19:48:37.713Z,96377.30
2018-06-29T19:51:05.161Z,96379.79
2018-06-29T19:53:32.428Z,96377.34
2018-06-29T19:55:59.769Z,96377.48
2018-06-29T19:58:27.100Z,96381.16
2018-06-29T20:00:54.528Z,96373.52
2018-06-29T20:03:21.910Z,96377.38
2018-06-29T20:05:49.205Z,96382.92
2018-06-29T20:08:16.659Z,96387.23
2018-06-29T20:10:43.989Z,96381.45
2018-06-29T20:13:11.594Z,96381.48
2018-06-29T20:15:38.917Z,96377.98
2018-06-29T20:18:06.778Z,96375.88
2018-06-29T20:20:34.417Z,96388.76
2018-06-29T20:23:01.966Z,96390.63
2018-06-29T20:25:29.373Z,96391.03
2018-06-29T20:27:56.880Z,96392.09
2018-06-29T20:30:24.323Z,96393.81
2018-06-29T20:32:52.213Z,96391.25
2018-06-29T20:35:19.551Z,96399.30
2018-06-29T20:37:46.895Z,96390.22
2018-06-29T20:40:14.305Z,96396.61
2018-06-29T20:42:41.745Z,96398.13
2018-06-29T20:45:09.182Z,96391.71
2018-06-29T20:47:36.707Z,96400.23
2018-06-29T20:50:04.173Z,96400.00
2018-06-29T20:52:31.591Z,96406.96
2018-06-29T20:54:58.987Z,96409.28
2018-06-29T20:57:26.304Z,96406.34
2018-06-29T20:59:53.771Z,96408.05
2018-06-29T21:02:21.191Z,96404.56
2018-06-29T21:04:48.618Z,96405.83
2018-06-29T21:07:17.353Z,96404.83
2018-06-29T21:09:44.775Z,96402.17
2018-06-29T21:12:12.063Z,96400.52
2018-06-29T21:14:40.171Z,96395.22
2018-06-29T21:17:07.539Z,96398.57
2018-06-29T21:19:35.070Z,96393.27
2018-06-29T21:22:02.446Z,96396.66
2018-06-29T21:24:29.797Z,96398.02
2018-06-29T21:26:57.198Z,96402.00
2018-06-29T21:29:24.573Z,96404.66
2018-06-29T21:31:52.106Z,96398.86
2018-06-29T21:34:19.682Z,96399.24
2018-06-29T21:36:47.081Z,96397.23
2018-06-29T21:39:14.949Z,96396.42
2018-06-29T21:41:42.300Z,96398.80
2018-06-29T21:44:09.728Z,96397.14
2018-06-29T21:46:37.315Z,96394.50
2018-06-29T21:49:04.699Z,96397.83
2018-06-29T21:51:32.344Z,96395.83
2018-06-29T21:53:59.719Z,96393.05
2018-06-29T21:56:27.409Z,96398.70
2018-06-29T21:58:55.059Z,96398.54
2018-06-29T22:01:22.534Z,96391.09
2018-06-29T22:03:49.899Z,96392.13
2018-06-29T22:06:17.256Z,96386.31
2018-06-29T22:08:44.700Z,96386.50
2018-06-29T22:11:12.080Z,96207.05
2018-06-29T22:13:39.513Z,96385.69
2018-06-29T22:16:06.810Z,96382.05
2018-06-29T22:18:34.168Z,96378.42
2018-06-29T22:21:01.562Z,96376.77
2018-06-29T22:23:28.887Z,96379.25
2018-06-29T22:25:56.298Z,96373.80
2018-06-29T22:28:23.696Z,96375.30
2018-06-29T22:30:51.049Z,96374.48
2018-06-29T22:33:18.343Z,96378.09
2018-06-29T22:35:45.785Z,96372.17
2018-06-29T22:38:13.193Z,96371.48
2018-06-29T22:40:40.549Z,96366.86
2018-06-29T22:43:07.958Z,96374.32
2018-06-29T22:45:35.302Z,96363.86
2018-06-29T22:48:02.731Z,96364.56
2018-06-29T22:50:30.103Z,96369.50
2018-06-29T22:52:57.564Z,96370.34
2018-06-29T22:55:24.907Z,96375.80
2018-06-29T22:57:52.689Z,96375.81
2018-06-29T23:00:20.087Z,96373.30
2018-06-29T23:02:47.506Z,96370.52
2018-06-29T23:05:14.831Z,96368.52
2018-06-29T23:07:42.182Z,96365.35
2018-06-29T23:10:09.630Z,96363.85
2018-06-29T23:12:37.004Z,96361.17
2018-06-29T23:15:04.622Z,96361.66
2018-06-29T23:17:32.014Z,96362.98
2018-06-29T23:19:59.378Z,96362.16
2018-06-29T23:22:26.614Z,96374.23
2018-06-29T23:24:53.921Z,96367.45
2018-06-29T23:27:21.307Z,96368.93
2018-06-29T23:29:49.620Z,96360.14
2018-06-29T23:32:16.927Z,96361.77
2018-06-29T23:34:44.298Z,96364.41
2018-06-29T23:37:13.195Z,96367.41
2018-06-29T23:39:40.555Z,96359.98
2018-06-29T23:42:07.966Z,96364.77
2018-06-29T23:44:35.323Z,96362.41
2018-06-29T23:47:02.667Z,96360.07
2018-06-29T23:49:30.059Z,96362.88
2018-06-29T23:51:57.452Z,96352.45
2018-06-29T23:54:24.734Z,96354.06
2018-06-29T23:56:52.073Z,96348.63
2018-06-29T23:59:25.007Z,96355.39
